Portada
METAR-TAF:

METAR-TAF

Aeroports :

Bucarest, Romania

latitud: 44-33N, longitud: 026-06E, altitud: 95 m

Observació

L'informe es va fer fa 20 minuts, a les 10:00 UTC
Vent 10 kt del Est/Nord-Est, variant entre Nord/Nord-Est i Est
Temperatura 16°C
Humitat 55%
Pressió 1024 hPa
Visibilitat 10 km o més
Escasses núvols a una alçada de 3700 ft

METAR: LROP 221000Z 06010KT 030V090 9999 FEW037 16/07 Q1024 R88/09//95 NOSIG

Hora: 13:20 (10:20 UTC)

Pronòstic

L'informe es va fer fa 5 hores i 20 minuts, a les 05:00 UTC
Pronòstic vàlid del 22 a les 06 UTC al 23 a les 06 UTC
Vent 4 kt amb direcció variable
Visibilitat 10 km o més
sense núvols per sota de 1500 mi sense presència de cumulonimbus.
Probabilitat 40% :
Temporalment
l' 22 a les 06 UTC al 22 a les 09 UTC
Vent 10 kt del Est/Nord-Est

TAF: LROP 220500Z 2206/2306 VRB04KT CAVOK PROB40 TEMPO 2206/2209 07010KT

Observacions i pronòstics meteorològics de més de 4000 aeroports (METAR i TAF).

Les estacions disponibles són els punts grocs i vermells al mapa.

Posi el ratolí al punt desitjat per veure el nom de l'estació.

Feu clic per veure les observacions i els pronòstics meteorològics.

Per canviar el mapa: feu clic els botons verds amb una creu de color negre per apropar; al botó verd amb un guió per allunyar la imatge; o en les fletxes verdes per a mapes adjacents.


METAR-TAF: